createdAt,value
2017-03-25T00:00:23.842Z,9.6
2017-03-25T00:01:34.190Z,9.59
2017-03-25T00:02:44.534Z,9.56
2017-03-25T00:03:54.552Z,9.52
2017-03-25T00:05:04.895Z,9.59
2017-03-25T00:06:15.231Z,9.53
2017-03-25T00:07:25.284Z,9.5
2017-03-25T00:08:35.007Z,9.57
2017-03-25T00:09:45.365Z,9.53
2017-03-25T00:10:55.151Z,9.52
2017-03-25T00:12:05.507Z,9.48
2017-03-25T00:13:15.904Z,9.5
2017-03-25T00:14:25.941Z,9.53
2017-03-25T00:15:36.295Z,9.5
2017-03-25T00:16:46.633Z,9.47
2017-03-25T00:17:56.972Z,9.47
2017-03-25T00:19:07.355Z,9.53
2017-03-25T00:20:17.704Z,9.45
2017-03-25T00:21:28.079Z,9.39
2017-03-25T00:22:38.412Z,9.41
2017-03-25T00:23:48.437Z,9.41
2017-03-25T00:24:58.781Z,9.41
2017-03-25T00:26:08.823Z,9.39
2017-03-25T00:27:18.853Z,9.38
2017-03-25T00:28:29.195Z,9.38
2017-03-25T00:29:39.233Z,9.39
2017-03-25T00:30:49.582Z,9.42
2017-03-25T00:31:59.614Z,9.38
2017-03-25T00:33:09.949Z,9.37
2017-03-25T00:34:19.979Z,9.26
2017-03-25T00:35:30.331Z,9.37
2017-03-25T00:36:40.687Z,9.3
2017-03-25T00:37:50.411Z,9.27
2017-03-25T00:39:00.143Z,9.3
2017-03-25T00:40:10.489Z,9.26
2017-03-25T00:41:20.840Z,9.16
2017-03-25T00:42:30.547Z,9.26
2017-03-25T00:43:40.589Z,9.32
2017-03-25T00:44:51.179Z,9.23
2017-03-25T00:46:01.568Z,9.27
2017-03-25T00:47:11.620Z,9.2
2017-03-25T00:48:21.019Z,9.16
2017-03-25T00:49:31.397Z,9.19
2017-03-25T00:50:41.973Z,9.23
2017-03-25T00:51:52.033Z,9.21
2017-03-25T00:53:02.058Z,9.08
2017-03-25T00:54:11.785Z,9.17
2017-03-25T00:55:22.132Z,9.2
2017-03-25T00:56:32.463Z,9.14
2017-03-25T00:57:42.821Z,9.14
2017-03-25T00:58:52.836Z,9.14
2017-03-25T01:00:03.186Z,9.12
2017-03-25T01:01:13.537Z,9.03
2017-03-25T01:02:23.567Z,9.03
2017-03-25T01:03:33.924Z,8.98
2017-03-25T01:04:43.950Z,9.03
2017-03-25T01:05:53.658Z,8.97
2017-03-25T01:07:03.690Z,8.98
2017-03-25T01:08:14.009Z,8.9
2017-03-25T01:09:24.018Z,8.86
2017-03-25T01:10:34.337Z,8.95
2017-03-25T01:11:44.680Z,8.94
2017-03-25T01:12:54.708Z,8.76
2017-03-25T01:14:05.030Z,8.97
2017-03-25T01:15:15.365Z,8.83
2017-03-25T01:16:25.707Z,8.94
2017-03-25T01:17:36.047Z,8.89
2017-03-25T01:18:46.087Z,8.94
2017-03-25T01:19:56.125Z,8.83
2017-03-25T01:21:06.459Z,8.83
2017-03-25T01:22:16.474Z,8.76
2017-03-25T01:23:26.493Z,8.77
2017-03-25T01:24:36.827Z,8.87
2017-03-25T01:25:46.865Z,8.82
2017-03-25T01:26:56.893Z,8.87
2017-03-25T01:28:07.297Z,8.8
2017-03-25T01:29:17.634Z,8.89
2017-03-25T01:30:27.967Z,8.77
2017-03-25T01:31:37.980Z,8.8
2017-03-25T01:32:47.986Z,8.87
2017-03-25T01:33:58.314Z,8.83
2017-03-25T01:35:08.330Z,8.86
2017-03-25T01:36:18.363Z,8.74
2017-03-25T01:37:28.687Z,8.85
2017-03-25T01:38:39.018Z,8.83
2017-03-25T01:39:49.340Z,8.82
2017-03-25T01:40:59.692Z,8.69
2017-03-25T01:42:10.025Z,8.71
2017-03-25T01:43:20.342Z,8.65
2017-03-25T01:44:30.690Z,8.64
2017-03-25T01:45:41.053Z,8.65
2017-03-25T01:46:51.377Z,8.64
2017-03-25T01:48:01.402Z,8.57
2017-03-25T01:49:11.726Z,8.57
2017-03-25T01:50:21.441Z,8.64
2017-03-25T01:51:31.464Z,8.46
2017-03-25T01:52:41.786Z,8.6
2017-03-25T01:53:52.130Z,8.54
2017-03-25T01:55:02.479Z,8.54
2017-03-25T01:56:12.807Z,8.43
2017-03-25T01:57:23.137Z,8.46
2017-03-25T01:58:32.534Z,8.47
2017-03-25T01:59:42.580Z,8.43
2017-03-25T02:00:52.593Z,8.47
2017-03-25T02:02:02.918Z,8.52
2017-03-25T02:03:13.254Z,8.46
2017-03-25T02:04:23.627Z,8.35
2017-03-25T02:05:33.639Z,8.4
2017-03-25T02:06:43.650Z,8.49
2017-03-25T02:07:53.666Z,8.42
2017-03-25T02:09:04.013Z,8.4
2017-03-25T02:10:14.395Z,8.44
2017-03-25T02:11:24.419Z,8.35
2017-03-25T02:12:34.772Z,8.42
2017-03-25T02:13:44.508Z,8.29
2017-03-25T02:14:54.857Z,8.26
2017-03-25T02:16:04.868Z,8.31
2017-03-25T02:17:15.207Z,8.25
2017-03-25T02:18:25.544Z,8.14
2017-03-25T02:19:35.881Z,8.19
2017-03-25T02:20:46.228Z,8.17
2017-03-25T02:21:56.239Z,8.17
2017-03-25T02:23:06.247Z,8.24
2017-03-25T02:24:16.263Z,8.21
2017-03-25T02:25:25.948Z,8.21
2017-03-25T02:26:36.014Z,8.14
2017-03-25T02:27:46.347Z,8.19
2017-03-25T02:28:56.047Z,8.16
2017-03-25T02:30:06.070Z,8.1
2017-03-25T02:31:16.392Z,8.11
2017-03-25T02:32:26.409Z,8.09
2017-03-25T02:33:36.429Z,7.99
2017-03-25T02:34:46.749Z,8.07
2017-03-25T02:35:57.079Z,8.1
2017-03-25T02:37:07.096Z,8.14
2017-03-25T02:38:17.434Z,8.13
2017-03-25T02:39:27.764Z,8.04
2017-03-25T02:40:37.796Z,7.98
2017-03-25T02:41:47.826Z,8.04
2017-03-25T02:42:58.168Z,8.01
2017-03-25T02:44:08.499Z,8.06
2017-03-25T02:45:18.859Z,8.09
2017-03-25T02:46:29.183Z,8.04
2017-03-25T02:47:39.517Z,7.96
2017-03-25T02:48:49.852Z,8.07
2017-03-25T02:50:00.185Z,8.04
2017-03-25T02:51:10.521Z,8.07
2017-03-25T02:52:20.854Z,8.09
2017-03-25T02:53:31.218Z,8.11
2017-03-25T02:54:41.562Z,8.22
2017-03-25T02:55:51.594Z,8.11
2017-03-25T02:57:01.946Z,8.07
2017-03-25T02:58:11.982Z,8.09
2017-03-25T02:59:22.317Z,8.1
2017-03-25T03:00:32.657Z,8.11
2017-03-25T03:32:12.590Z,5.13
2017-03-25T03:33:21.665Z,4.98
2017-03-25T03:34:31.992Z,5
2017-03-25T03:35:42.051Z,5.06
2017-03-25T03:36:52.079Z,5.13
2017-03-25T03:38:02.415Z,5.34
2017-03-25T03:39:12.756Z,5.34
2017-03-25T03:40:22.796Z,5.54
2017-03-25T03:41:32.505Z,5.63
2017-03-25T03:42:42.827Z,5.77
2017-03-25T03:43:52.848Z,5.89
2017-03-25T03:45:03.200Z,6.17
2017-03-25T03:46:13.226Z,6.29
2017-03-25T03:47:23.564Z,6.34
2017-03-25T03:48:33.589Z,6.49
2017-03-25T03:49:43.924Z,6.62
2017-03-25T03:50:54.271Z,6.73
2017-03-25T03:52:04.296Z,6.9
2017-03-25T03:53:14.641Z,6.91
2017-03-25T03:54:24.651Z,6.98
2017-03-25T03:55:34.676Z,6.95
2017-03-25T03:56:45.002Z,7.03
2017-03-25T03:57:54.724Z,7.15
2017-03-25T03:59:05.055Z,7.16
2017-03-25T04:00:15.096Z,7.26
2017-03-25T04:01:25.460Z,7.26
2017-03-25T04:02:35.487Z,7.33
2017-03-25T04:03:45.831Z,7.34
2017-03-25T04:04:56.171Z,7.44
2017-03-25T04:06:06.215Z,7.47
2017-03-25T04:07:16.547Z,7.44
2017-03-25T04:08:26.265Z,7.51
2017-03-25T04:09:36.636Z,7.51
2017-03-25T04:10:46.968Z,7.54
2017-03-25T04:11:56.988Z,7.49
2017-03-25T04:13:07.022Z,7.54
2017-03-25T04:14:17.053Z,7.54
2017-03-25T04:15:27.389Z,7.54
2017-03-25T04:16:37.786Z,7.56
2017-03-25T04:17:47.838Z,7.61
2017-03-25T04:18:58.184Z,7.55
2017-03-25T04:20:08.446Z,7.63
2017-03-25T04:21:18.486Z,7.63
2017-03-25T04:22:28.816Z,7.51
2017-03-25T04:23:39.150Z,7.63
2017-03-25T04:24:49.494Z,7.58
2017-03-25T04:25:59.517Z,7.56
2017-03-25T04:27:09.849Z,7.51
2017-03-25T04:28:19.892Z,7.55
2017-03-25T04:29:30.231Z,7.49
2017-03-25T04:30:40.553Z,7.54
2017-03-25T04:31:50.574Z,7.54
2017-03-25T04:33:00.919Z,7.63
2017-03-25T04:34:10.946Z,7.59
2017-03-25T04:35:21.291Z,7.63
2017-03-25T04:36:31.316Z,7.67
2017-03-25T04:37:41.649Z,7.71
2017-03-25T04:38:51.674Z,7.73
2017-03-25T04:40:01.710Z,7.63
2017-03-25T04:41:12.075Z,7.7
2017-03-25T04:42:22.427Z,7.64
2017-03-25T04:43:32.449Z,7.63
2017-03-25T04:44:42.778Z,7.56
2017-03-25T04:45:52.484Z,7.59
2017-03-25T04:47:02.821Z,7.59
2017-03-25T04:48:12.850Z,7.52
2017-03-25T04:49:23.182Z,7.56
2017-03-25T04:50:33.516Z,7.63
2017-03-25T04:51:43.542Z,7.59
2017-03-25T04:52:53.895Z,7.58
2017-03-25T04:54:03.925Z,7.58
2017-03-25T04:55:14.262Z,7.64
2017-03-25T04:56:24.264Z,7.68
2017-03-25T04:57:34.581Z,7.78
2017-03-25T04:58:44.604Z,7.74
2017-03-25T04:59:54.941Z,7.83
2017-03-25T05:01:05.265Z,7.77
2017-03-25T05:02:15.654Z,7.83
2017-03-25T05:03:25.680Z,7.88
2017-03-25T05:04:36.024Z,7.95
2017-03-25T05:05:46.041Z,7.92
2017-03-25T05:06:56.377Z,7.99
2017-03-25T05:08:06.711Z,8.06
2017-03-25T05:09:17.055Z,8.11
2017-03-25T05:10:27.381Z,8.1
2017-03-25T05:11:37.721Z,8.11
2017-03-25T05:12:48.059Z,8.22
2017-03-25T05:13:58.092Z,8.14
2017-03-25T05:15:08.126Z,8.16
2017-03-25T05:16:18.134Z,8.14
2017-03-25T05:17:28.197Z,8.25
2017-03-25T05:18:38.536Z,8.17
2017-03-25T05:19:48.571Z,8.31
2017-03-25T05:20:58.270Z,8.39
2017-03-25T05:22:08.312Z,8.36
2017-03-25T05:23:18.025Z,8.44
2017-03-25T05:24:28.051Z,8.4
2017-03-25T05:25:38.388Z,8.6
2017-03-25T05:26:48.745Z,8.57
2017-03-25T05:27:59.081Z,8.65
2017-03-25T05:29:09.408Z,8.74
2017-03-25T05:30:19.785Z,8.77
2017-03-25T05:31:30.136Z,8.77
2017-03-25T05:32:40.463Z,8.76
2017-03-25T05:33:50.806Z,8.82
2017-03-25T05:35:00.841Z,9.01
2017-03-25T05:36:11.198Z,9.12
2017-03-25T05:37:21.529Z,9.17
2017-03-25T05:38:31.595Z,9.19
2017-03-25T05:39:41.672Z,9.35
2017-03-25T05:40:51.699Z,9.34
2017-03-25T05:42:02.035Z,9.5
2017-03-25T05:43:12.372Z,9.52
2017-03-25T05:44:22.741Z,9.59
2017-03-25T05:45:33.132Z,9.64
2017-03-25T05:46:43.472Z,9.71
2017-03-25T05:47:53.815Z,9.82
2017-03-25T05:49:04.146Z,9.89
2017-03-25T05:50:13.848Z,10
2017-03-25T05:51:23.559Z,10.05
2017-03-25T05:52:33.895Z,10.13
2017-03-25T05:53:44.228Z,10.21
2017-03-25T05:54:54.570Z,10.25
2017-03-25T05:56:04.295Z,10.29
2017-03-25T05:57:14.629Z,10.33
2017-03-25T05:58:24.965Z,10.36
2017-03-25T05:59:35.304Z,10.47
2017-03-25T06:00:45.676Z,10.59
2017-03-25T06:01:56.029Z,10.72
2017-03-25T06:03:06.377Z,10.66
2017-03-25T06:04:16.410Z,10.76
2017-03-25T06:05:26.733Z,10.75
2017-03-25T06:06:37.078Z,10.84
2017-03-25T06:07:47.409Z,10.72
2017-03-25T06:08:57.751Z,10.73
2017-03-25T06:10:07.467Z,10.8
2017-03-25T06:11:17.812Z,10.9
2017-03-25T06:12:27.845Z,10.91
2017-03-25T06:13:37.888Z,10.79
2017-03-25T06:14:48.215Z,10.84
2017-03-25T06:15:58.535Z,10.84
2017-03-25T06:17:08.593Z,10.85
2017-03-25T06:18:18.935Z,10.92
2017-03-25T06:19:29.279Z,11.05
2017-03-25T06:20:39.625Z,11.05
2017-03-25T06:21:49.948Z,11.1
2017-03-25T06:22:59.986Z,11.26
2017-03-25T06:24:10.345Z,11.31
2017-03-25T06:25:20.355Z,11.39
2017-03-25T06:26:30.687Z,11.39
2017-03-25T06:27:41.029Z,11.48
2017-03-25T06:28:51.351Z,11.51
2017-03-25T06:30:01.708Z,11.46
2017-03-25T06:31:12.057Z,11.42
2017-03-25T06:32:22.410Z,11.39
2017-03-25T06:33:32.741Z,11.45
2017-03-25T06:34:42.768Z,11.46
2017-03-25T06:35:53.104Z,11.46
2017-03-25T06:37:03.133Z,11.45
2017-03-25T06:38:13.452Z,11.42
2017-03-25T06:39:23.801Z,11.46
2017-03-25T06:40:33.825Z,11.45
2017-03-25T06:41:43.838Z,11.49
2017-03-25T06:42:54.166Z,11.57
2017-03-25T06:44:04.517Z,11.6
2017-03-25T06:45:14.537Z,11.68
2017-03-25T06:46:24.557Z,11.73
2017-03-25T06:47:34.897Z,11.75
2017-03-25T06:48:45.240Z,11.79
2017-03-25T06:49:55.323Z,11.73
2017-03-25T06:51:05.037Z,11.76
2017-03-25T06:52:14.768Z,11.78
2017-03-25T06:53:24.786Z,11.85
2017-03-25T06:54:35.124Z,11.91
2017-03-25T06:55:45.178Z,11.88
2017-03-25T06:56:55.217Z,11.88
2017-03-25T06:58:05.549Z,11.95
2017-03-25T06:59:15.570Z,11.91
2017-03-25T07:00:25.982Z,11.91
2017-03-25T07:01:36.002Z,12.01
2017-03-25T07:02:46.041Z,12.03
2017-03-25T07:03:56.372Z,12.07
2017-03-25T07:05:06.392Z,12.01
2017-03-25T07:06:16.784Z,12.05
2017-03-25T07:07:27.141Z,12.07
2017-03-25T07:08:37.455Z,12.1
2017-03-25T07:09:47.779Z,12.16
2017-03-25T07:10:57.817Z,12.13
2017-03-25T07:12:08.173Z,12.08
2017-03-25T07:13:18.521Z,12.33
2017-03-25T07:14:28.873Z,12.37
2017-03-25T07:15:39.213Z,12.4
2017-03-25T07:16:49.537Z,12.4
2017-03-25T07:17:59.567Z,12.44
2017-03-25T07:19:09.304Z,12.61
2017-03-25T07:20:19.643Z,12.59
2017-03-25T07:21:29.986Z,12.61
2017-03-25T07:22:40.329Z,12.81
2017-03-25T07:23:50.730Z,12.86
2017-03-25T07:25:00.461Z,12.89
2017-03-25T07:26:10.798Z,12.89
2017-03-25T07:27:20.835Z,12.92
2017-03-25T07:28:31.179Z,13.02
2017-03-25T07:29:41.238Z,13.07
2017-03-25T07:30:51.265Z,13.16
2017-03-25T07:32:01.613Z,13.09
2017-03-25T07:33:11.965Z,13.16
2017-03-25T07:34:22.359Z,13.07
2017-03-25T07:35:32.742Z,13.17
2017-03-25T07:36:43.139Z,13.17
2017-03-25T07:37:53.188Z,13.16
2017-03-25T07:39:03.222Z,13.2
2017-03-25T07:40:13.565Z,13.24
2017-03-25T07:41:23.599Z,13.31
2017-03-25T07:42:33.331Z,13.47
2017-03-25T07:43:43.674Z,13.37
2017-03-25T07:44:54.018Z,13.39
2017-03-25T07:46:04.359Z,13.44
2017-03-25T07:47:14.389Z,13.48
2017-03-25T07:48:24.123Z,13.65
2017-03-25T07:49:34.483Z,13.53
2017-03-25T07:50:44.496Z,13.6
2017-03-25T07:51:54.863Z,13.65
2017-03-25T07:53:04.894Z,13.79
2017-03-25T07:54:15.225Z,13.83
2017-03-25T07:55:25.266Z,13.94
2017-03-25T07:56:35.600Z,13.99
2017-03-25T07:57:45.650Z,13.97
2017-03-25T07:58:55.667Z,13.97
2017-03-25T08:00:06.029Z,14.06
2017-03-25T08:01:16.051Z,14.09
2017-03-25T08:02:26.407Z,14.2
2017-03-25T08:03:36.752Z,14.23
2017-03-25T08:04:47.077Z,14.26
2017-03-25T08:05:57.138Z,14.36
2017-03-25T08:07:07.501Z,14.41
2017-03-25T08:08:17.848Z,14.44
2017-03-25T08:09:27.572Z,14.46
2017-03-25T08:10:37.898Z,14.46
2017-03-25T08:11:48.239Z,14.49
2017-03-25T08:12:58.590Z,14.52
2017-03-25T08:14:08.924Z,14.45
2017-03-25T08:15:19.275Z,14.52
2017-03-25T08:16:29.626Z,14.44
2017-03-25T08:17:39.974Z,14.52
2017-03-25T08:18:50.066Z,14.48
2017-03-25T08:20:00.428Z,14.7
2017-03-25T08:21:10.476Z,14.56
2017-03-25T08:22:20.493Z,14.66
2017-03-25T08:23:30.858Z,14.74
2017-03-25T08:24:40.895Z,14.82
2017-03-25T08:25:50.934Z,14.77
2017-03-25T08:27:01.304Z,14.8
2017-03-25T08:28:11.664Z,14.86
2017-03-25T08:29:21.386Z,14.9
2017-03-25T08:30:31.741Z,14.98
2017-03-25T08:31:42.091Z,15.04
2017-03-25T08:32:52.108Z,15.13
2017-03-25T08:34:02.468Z,15.07
2017-03-25T08:35:12.197Z,15.19
2017-03-25T08:36:22.566Z,15.27
2017-03-25T08:37:32.939Z,15.3
2017-03-25T08:38:43.264Z,15.34
2017-03-25T08:39:53.307Z,15.41
2017-03-25T08:41:03.691Z,15.51
2017-03-25T08:42:13.427Z,15.6
2017-03-25T08:43:23.828Z,15.58
2017-03-25T08:44:33.548Z,15.6
2017-03-25T08:45:43.604Z,15.68
2017-03-25T08:46:53.961Z,15.67
2017-03-25T08:48:03.980Z,15.74
2017-03-25T08:49:14.363Z,15.65
2017-03-25T08:50:24.769Z,15.73
2017-03-25T08:51:35.158Z,15.71
2017-03-25T08:52:45.208Z,15.71
2017-03-25T08:53:55.559Z,15.65
2017-03-25T08:55:05.914Z,15.68
2017-03-25T08:56:15.958Z,15.86
2017-03-25T08:57:26.315Z,15.88
2017-03-25T08:58:36.666Z,15.84
2017-03-25T08:59:47.033Z,15.99
2017-03-25T09:00:56.777Z,16.1
2017-03-25T09:02:06.792Z,16.17
2017-03-25T09:03:17.168Z,16.26
2017-03-25T09:04:27.545Z,16.3
2017-03-25T09:05:37.915Z,16.33
2017-03-25T09:06:48.261Z,16.44
2017-03-25T09:07:58.643Z,16.51
2017-03-25T09:09:08.984Z,16.57
2017-03-25T09:10:19.335Z,16.58
2017-03-25T09:11:29.082Z,16.57
2017-03-25T09:12:39.129Z,16.67
2017-03-25T09:13:49.173Z,16.74
2017-03-25T09:14:59.225Z,16.7
2017-03-25T09:16:09.266Z,16.7
2017-03-25T09:17:19.635Z,16.72
2017-03-25T09:18:29.389Z,16.67
2017-03-25T09:19:39.750Z,16.76
2017-03-25T09:20:50.118Z,16.77
2017-03-25T09:22:00.456Z,16.9
2017-03-25T09:23:10.820Z,17.06
2017-03-25T09:24:21.201Z,17.2
2017-03-25T09:25:31.601Z,17.18
2017-03-25T09:26:41.949Z,17.32
2017-03-25T09:27:51.994Z,17.43
2017-03-25T09:29:02.057Z,17.55
2017-03-25T09:30:12.414Z,17.6
2017-03-25T09:31:22.793Z,17.71
2017-03-25T09:32:33.186Z,17.63
2017-03-25T09:33:43.578Z,17.66
2017-03-25T09:34:53.645Z,17.69
2017-03-25T09:36:03.997Z,17.66
2017-03-25T09:37:14.353Z,17.77
2017-03-25T09:38:24.722Z,17.79
2017-03-25T09:39:34.468Z,17.88
2017-03-25T09:40:44.822Z,18.03
2017-03-25T09:41:54.872Z,18.2
2017-03-25T09:43:04.938Z,18.2
2017-03-25T09:44:15.323Z,18.27
2017-03-25T09:45:25.704Z,18.34
2017-03-25T09:46:36.077Z,18.49
2017-03-25T09:47:46.441Z,18.42
2017-03-25T09:48:56.817Z,18.44
2017-03-25T09:50:07.169Z,18.5
2017-03-25T09:51:17.521Z,18.59
2017-03-25T09:52:27.877Z,18.63
2017-03-25T09:53:38.269Z,18.71
2017-03-25T09:54:48.646Z,18.81
2017-03-25T09:55:59.002Z,18.86
2017-03-25T09:57:09.348Z,18.82
2017-03-25T09:58:19.718Z,18.75
2017-03-25T09:59:29.762Z,18.76
2017-03-25T10:00:40.141Z,18.76
2017-03-25T10:01:50.193Z,18.79
2017-03-25T10:03:00.786Z,18.89
2017-03-25T10:04:11.188Z,18.91
2017-03-25T10:05:21.274Z,18.94
2017-03-25T10:06:31.640Z,18.89
2017-03-25T10:07:41.994Z,19.02
2017-03-25T10:08:52.039Z,18.96
2017-03-25T10:10:02.399Z,18.97
2017-03-25T10:11:12.737Z,19.02
2017-03-25T10:12:23.093Z,19
2017-03-25T10:13:33.429Z,19.15
2017-03-25T10:14:43.790Z,19.17
2017-03-25T10:15:54.152Z,19.27
2017-03-25T10:17:04.519Z,19.3
2017-03-25T10:18:14.226Z,19.37
2017-03-25T10:19:24.289Z,19.5
2017-03-25T10:20:34.656Z,19.56
2017-03-25T10:21:44.688Z,19.5
2017-03-25T10:22:54.752Z,19.49
2017-03-25T10:24:04.854Z,19.61
2017-03-25T10:25:14.971Z,19.6
2017-03-25T10:26:25.036Z,19.53
2017-03-25T10:27:35.101Z,19.52
2017-03-25T10:28:45.140Z,19.57
2017-03-25T10:29:55.187Z,19.57
2017-03-25T10:31:05.549Z,19.72
2017-03-25T10:32:15.925Z,19.79
2017-03-25T10:33:26.261Z,19.86
2017-03-25T10:34:36.303Z,20
2017-03-25T10:35:46.354Z,20.01
2017-03-25T10:36:56.720Z,20
2017-03-25T10:38:07.072Z,20.07
2017-03-25T10:39:17.136Z,20.18
2017-03-25T10:40:27.216Z,20.29
2017-03-25T10:41:37.575Z,20.38
2017-03-25T10:42:47.954Z,20.49
2017-03-25T10:43:58.302Z,20.51
2017-03-25T10:45:08.023Z,20.6
2017-03-25T10:46:18.387Z,20.57
2017-03-25T10:47:28.748Z,20.71
2017-03-25T10:48:38.788Z,20.76
2017-03-25T10:49:49.147Z,20.79
2017-03-25T10:50:59.512Z,20.83
2017-03-25T10:52:09.865Z,20.76
2017-03-25T10:53:20.249Z,20.78
2017-03-25T10:54:30.613Z,20.67
2017-03-25T10:55:40.692Z,20.68
2017-03-25T10:56:51.066Z,20.74
2017-03-25T10:58:00.848Z,20.68
2017-03-25T10:59:11.233Z,20.61
2017-03-25T11:00:21.294Z,20.54
2017-03-25T11:01:31.674Z,20.42
2017-03-25T11:02:41.744Z,20.32
2017-03-25T11:03:51.790Z,20.42
2017-03-25T11:05:01.834Z,20.4
2017-03-25T11:06:12.197Z,20.41
2017-03-25T11:07:22.559Z,20.49
2017-03-25T11:08:32.915Z,20.53
2017-03-25T11:09:43.290Z,20.42
2017-03-25T11:10:53.638Z,20.44
2017-03-25T11:12:03.684Z,20.4
2017-03-25T11:13:14.062Z,20.4
2017-03-25T11:14:24.408Z,20.41
2017-03-25T11:15:34.785Z,20.34
2017-03-25T11:16:45.155Z,20.27
2017-03-25T11:17:55.541Z,20.3
2017-03-25T11:19:05.904Z,20.35
2017-03-25T11:20:16.251Z,20.37
2017-03-25T11:21:26.587Z,20.37
2017-03-25T11:22:36.628Z,20.48
2017-03-25T11:23:47.012Z,20.48
2017-03-25T11:24:56.744Z,20.53
2017-03-25T11:26:07.101Z,20.58
2017-03-25T11:27:17.147Z,20.57
2017-03-25T11:28:27.509Z,20.61
2017-03-25T11:29:37.590Z,20.71
2017-03-25T11:30:47.656Z,20.78
2017-03-25T11:31:57.707Z,20.86
2017-03-25T11:33:08.082Z,20.97
2017-03-25T11:34:17.815Z,20.98
2017-03-25T11:35:28.161Z,21.09
2017-03-25T11:36:38.555Z,21.11
2017-03-25T11:37:48.909Z,21.18
2017-03-25T11:38:59.504Z,21.22
2017-03-25T11:40:09.871Z,21.3
2017-03-25T11:41:20.228Z,21.38
2017-03-25T11:42:30.282Z,21.41
2017-03-25T11:43:40.636Z,21.4
2017-03-25T11:44:50.399Z,21.48
2017-03-25T11:46:00.455Z,21.43
2017-03-25T11:47:10.498Z,21.49
2017-03-25T11:48:20.860Z,21.43
2017-03-25T11:49:30.896Z,21.41
2017-03-25T11:50:40.927Z,21.41
2017-03-25T11:51:51.258Z,21.36
2017-03-25T11:53:01.619Z,21.36
2017-03-25T11:54:11.989Z,21.21
2017-03-25T11:55:22.376Z,21.21
2017-03-25T11:56:32.735Z,21.16
2017-03-25T11:57:43.107Z,21.22
2017-03-25T11:58:53.504Z,21.25
2017-03-25T12:00:03.883Z,21.23
2017-03-25T12:01:14.259Z,21.25
2017-03-25T12:02:24.619Z,21.43
2017-03-25T12:03:34.688Z,21.38
2017-03-25T12:04:45.052Z,21.33
2017-03-25T12:05:55.087Z,21.27
2017-03-25T12:07:05.119Z,21.27
2017-03-25T12:08:15.476Z,21.3
2017-03-25T12:09:25.528Z,21.33
2017-03-25T12:10:35.261Z,21.23
2017-03-25T12:11:45.625Z,21.18
2017-03-25T12:12:55.969Z,21.18
2017-03-25T12:14:06.337Z,21.11
2017-03-25T12:15:16.700Z,21.16
2017-03-25T12:16:27.058Z,21.16
2017-03-25T12:17:37.427Z,21.16
2017-03-25T12:18:47.458Z,21.15
2017-03-25T12:19:57.881Z,21.18
2017-03-25T12:21:08.228Z,21.16
2017-03-25T12:22:18.592Z,21.19
2017-03-25T12:23:28.949Z,21.22
2017-03-25T12:24:39.388Z,21.27
2017-03-25T12:25:49.753Z,21.33
2017-03-25T12:27:00.127Z,21.4
2017-03-25T12:28:10.503Z,21.43
2017-03-25T12:29:20.913Z,21.53
2017-03-25T12:30:31.278Z,21.49
2017-03-25T12:31:41.894Z,21.49
2017-03-25T12:32:52.245Z,21.51
2017-03-25T12:34:02.609Z,21.49
2017-03-25T12:35:12.967Z,21.49
2017-03-25T12:36:23.330Z,21.51
2017-03-25T12:37:33.697Z,21.56
2017-03-25T12:38:44.105Z,21.55
2017-03-25T12:39:54.474Z,21.49
2017-03-25T12:41:04.874Z,21.56
2017-03-25T12:42:15.229Z,21.52
2017-03-25T12:43:25.608Z,21.66
2017-03-25T12:44:35.958Z,21.66
2017-03-25T12:45:46.021Z,21.59
2017-03-25T12:46:56.062Z,21.61
2017-03-25T12:48:06.429Z,21.67
2017-03-25T12:49:16.838Z,21.76
2017-03-25T12:50:26.898Z,21.74
2017-03-25T12:51:36.923Z,21.68
2017-03-25T12:52:47.294Z,21.8
2017-03-25T12:53:57.333Z,21.83
2017-03-25T12:55:07.358Z,21.78
2017-03-25T12:56:17.419Z,21.82
2017-03-25T12:57:27.778Z,21.86
2017-03-25T12:58:38.130Z,21.93
2017-03-25T12:59:48.486Z,22.02
2017-03-25T13:00:58.867Z,21.97
2017-03-25T13:02:09.241Z,22.14
2017-03-25T13:03:19.834Z,22.18
2017-03-25T13:04:30.188Z,22.33
2017-03-25T13:05:40.218Z,22.49
2017-03-25T13:06:50.286Z,22.69
2017-03-25T13:08:00.655Z,22.7
2017-03-25T13:09:11.011Z,22.82
2017-03-25T13:10:21.062Z,22.97
2017-03-25T13:11:31.440Z,23.09
2017-03-25T13:12:41.797Z,23.14
2017-03-25T13:13:52.154Z,23.14
2017-03-25T13:15:02.222Z,23.21
2017-03-25T13:16:12.243Z,23.37
2017-03-25T13:17:22.858Z,23.45
2017-03-25T13:18:33.200Z,23.59
2017-03-25T13:19:43.303Z,23.59
2017-03-25T13:20:53.650Z,23.41
2017-03-25T13:22:04.004Z,23.48
2017-03-25T13:23:14.408Z,23.48
2017-03-25T13:24:24.772Z,23.5
2017-03-25T13:25:34.815Z,23.55
2017-03-25T13:26:44.888Z,23.53
2017-03-25T13:27:55.320Z,23.56
2017-03-25T13:29:05.698Z,23.5
2017-03-25T13:30:15.750Z,23.48
2017-03-25T13:31:26.182Z,23.45
2017-03-25T13:32:36.570Z,23.53
2017-03-25T13:33:46.960Z,23.45
2017-03-25T13:34:57.326Z,23.59
2017-03-25T13:36:07.684Z,23.55
2017-03-25T13:37:18.036Z,23.64
2017-03-25T13:38:28.389Z,23.64
2017-03-25T13:39:38.756Z,23.62
2017-03-25T13:40:48.500Z,23.55
2017-03-25T13:41:58.894Z,23.56
2017-03-25T13:43:09.274Z,23.63
2017-03-25T13:44:19.679Z,23.62
2017-03-25T13:45:30.049Z,23.53
2017-03-25T13:46:40.397Z,23.55
2017-03-25T13:47:50.745Z,23.41
2017-03-25T13:49:01.122Z,23.26
2017-03-25T13:50:11.481Z,23.19
2017-03-25T13:51:21.827Z,23.07
2017-03-25T13:52:31.881Z,22.94
2017-03-25T13:53:41.626Z,22.88
2017-03-25T13:54:51.990Z,22.91
2017-03-25T13:56:02.354Z,22.81
2017-03-25T13:57:12.388Z,22.66
2017-03-25T13:58:22.757Z,22.61
2017-03-25T13:59:32.791Z,22.49
2017-03-25T14:00:42.862Z,22.44
2017-03-25T14:01:52.923Z,22.41
2017-03-25T14:03:03.561Z,22.2
2017-03-25T14:04:13.641Z,22.04
2017-03-25T14:05:24.032Z,21.96
2017-03-25T14:06:34.638Z,21.78
2017-03-25T14:07:44.372Z,21.73
2017-03-25T14:08:54.445Z,21.67
2017-03-25T14:10:04.835Z,21.59
2017-03-25T14:11:15.188Z,21.51
2017-03-25T14:12:25.258Z,21.51
2017-03-25T14:13:35.307Z,21.37
2017-03-25T14:14:45.690Z,21.36
2017-03-25T14:15:55.746Z,21.19
2017-03-25T14:17:06.135Z,21.28
2017-03-25T14:18:16.496Z,21.46
2017-03-25T14:19:26.266Z,21.58
2017-03-25T14:20:36.618Z,21.55
2017-03-25T14:21:46.339Z,21.74
2017-03-25T14:22:56.695Z,21.85
2017-03-25T14:24:06.747Z,21.89
2017-03-25T14:25:17.127Z,22.08
2017-03-25T14:26:27.520Z,22.14
2017-03-25T14:27:37.558Z,22.3
2017-03-25T14:28:47.939Z,22.39
2017-03-25T14:29:57.689Z,22.49
2017-03-25T14:31:07.772Z,22.54
2017-03-25T14:32:18.129Z,22.66
2017-03-25T14:33:28.480Z,22.69
2017-03-25T14:34:38.832Z,22.73
2017-03-25T14:35:49.184Z,22.81
2017-03-25T14:36:59.554Z,22.91
2017-03-25T14:38:09.589Z,22.79
2017-03-25T14:39:19.938Z,22.69
2017-03-25T14:40:29.684Z,22.55
2017-03-25T14:41:40.037Z,22.42
2017-03-25T14:42:50.086Z,22.29
2017-03-25T14:44:00.458Z,22.15
2017-03-25T14:45:10.825Z,21.93
2017-03-25T14:46:21.168Z,22.02
2017-03-25T14:47:31.528Z,21.94
2017-03-25T14:48:41.661Z,21.89
2017-03-25T14:49:51.413Z,21.8
2017-03-25T14:51:01.777Z,21.67
2017-03-25T14:52:12.176Z,21.62
2017-03-25T14:53:22.249Z,21.48
2017-03-25T14:54:32.329Z,21.41
2017-03-25T14:55:42.703Z,21.38
2017-03-25T14:56:53.104Z,21.19
2017-03-25T14:58:03.152Z,21.19
2017-03-25T14:59:13.201Z,21.21
2017-03-25T15:00:22.943Z,21.18
2017-03-25T15:01:33.311Z,21.06
2017-03-25T15:02:43.708Z,21.23
2017-03-25T15:03:54.050Z,21.21
2017-03-25T15:05:04.438Z,21.15
2017-03-25T15:06:14.813Z,21
2017-03-25T15:07:25.184Z,20.86
2017-03-25T15:08:35.547Z,20.78
2017-03-25T15:09:45.918Z,20.83
2017-03-25T15:10:56.512Z,20.78
2017-03-25T15:12:06.864Z,20.72
2017-03-25T15:13:17.230Z,20.66
2017-03-25T15:14:27.601Z,20.58
2017-03-25T15:15:37.677Z,20.66
2017-03-25T15:16:48.046Z,20.57
2017-03-25T15:17:58.103Z,20.44
2017-03-25T15:19:07.841Z,20.48
2017-03-25T15:20:18.214Z,20.4
2017-03-25T15:21:27.955Z,20.42
2017-03-25T15:22:38.311Z,20.37
2017-03-25T15:23:48.673Z,20.26
2017-03-25T15:24:59.020Z,20.34
2017-03-25T15:26:09.376Z,20.16
2017-03-25T15:27:19.470Z,20.01
2017-03-25T15:28:29.832Z,20.12
2017-03-25T15:29:39.893Z,20.02
2017-03-25T15:30:49.639Z,20.11
2017-03-25T15:31:59.696Z,19.98
2017-03-25T15:33:10.036Z,20.08
2017-03-25T15:34:19.760Z,20.04
2017-03-25T15:35:30.120Z,20.04
2017-03-25T15:36:40.479Z,20.01
2017-03-25T15:37:50.854Z,20
2017-03-25T15:39:00.907Z,20.04
2017-03-25T15:40:10.960Z,20
2017-03-25T15:41:21.315Z,19.92
2017-03-25T15:42:31.682Z,19.85
2017-03-25T15:43:42.040Z,19.74
2017-03-25T15:44:52.446Z,19.6
2017-03-25T15:46:02.803Z,19.47
2017-03-25T15:47:13.181Z,19.49
2017-03-25T15:48:23.560Z,19.37